Time;durP1;ratioP1;P1;durP2;ratioP2;P2;SDS_P1;SDS_P2;PMS_P1;PMS_P2;Temp;Humidity;BMP_temperature;BMP_pressure;BME280_temperature;BME280_humidity;BME280_pressure;Samples;Min_cycle;Max_cycle;Signal;HPM_P1;HPM_P2
2021/12/04 00:01:09;;;;;;;20.10;5.93;;;4.90;99.90;;;;;;5017127;28;20210;-75
2021/12/04 00:03:36;;;;;;;22.30;6.27;;;4.90;99.90;;;;;;5017359;28;20289;-75
2021/12/04 00:06:08;;;;;;;21.10;5.77;;;4.90;99.90;;;;;;5016527;28;20241;-73
2021/12/04 00:08:35;;;;;;;21.53;6.07;;;6.10;99.90;;;;;;5016051;28;20233;-74
2021/12/04 00:11:02;;;;;;;21.17;6.37;;;4.90;99.90;;;;;;5014751;28;20379;-74
2021/12/04 00:13:31;;;;;;;23.70;6.53;;;4.90;99.90;;;;;;5015889;28;21321;-74
2021/12/04 00:15:58;;;;;;;19.87;6.00;;;4.90;99.90;;;;;;5013109;28;20284;-74
2021/12/04 00:18:25;;;;;;;21.07;6.20;;;4.90;99.90;;;;;;5013881;28;20237;-74
2021/12/04 00:20:52;;;;;;;21.80;6.17;;;4.90;99.90;;;;;;5013776;28;20215;-74
2021/12/04 00:23:19;;;;;;;20.57;6.70;;;5.00;99.90;;;;;;5014071;28;20225;-74
2021/12/04 00:25:46;;;;;;;21.70;6.70;;;4.90;99.90;;;;;;4997038;28;20759;-74
2021/12/04 00:28:13;;;;;;;25.83;6.90;;;4.90;99.90;;;;;;5014469;28;20596;-74
2021/12/04 00:30:42;;;;;;;23.30;6.77;;;4.90;99.90;;;;;;5013905;28;20218;-74
2021/12/04 00:33:14;;;;;;;18.03;5.57;;;4.90;99.90;;;;;;5012576;28;20218;-75
2021/12/04 00:35:46;;;;;;;21.50;6.97;;;4.90;99.90;;;;;;5013621;28;20264;-75
2021/12/04 00:49:13;;;;;;;24.33;8.47;;;4.80;99.90;;;;;;5012126;28;20237;-75
2021/12/04 00:51:42;;;;;;;27.07;9.47;;;4.80;99.90;;;;;;5013881;28;20220;-74
2021/12/04 00:54:12;;;;;;;26.77;9.90;;;4.90;99.90;;;;;;5013742;28;20205;-75
2021/12/04 00:56:40;;;;;;;27.70;10.47;;;4.90;99.90;;;;;;5013384;28;20214;-74
2021/12/04 00:59:07;;;;;;;31.07;11.80;;;4.90;99.90;;;;;;5012882;28;20234;-75
2021/12/04 01:01:39;;;;;;;25.10;9.83;;;5.00;99.90;;;;;;5012398;28;20302;-74
2021/12/04 01:04:09;;;;;;;30.97;11.57;;;5.00;99.90;;;;;;5015802;28;20206;-75
2021/12/04 01:06:36;;;;;;;25.37;10.40;;;5.00;99.90;;;;;;5013824;28;20210;-75
2021/12/04 01:09:04;;;;;;;27.27;11.30;;;5.00;99.90;;;;;;5013506;28;20230;-74
2021/12/04 01:11:31;;;;;;;25.87;10.17;;;5.00;99.90;;;;;;5013129;28;20229;-75
2021/12/04 01:13:58;;;;;;;30.17;12.13;;;5.00;99.90;;;;;;5011386;28;20222;-75
2021/12/04 01:16:25;;;;;;;28.33;11.67;;;5.00;99.90;;;;;;5012093;28;20833;-74
2021/12/04 01:18:53;;;;;;;25.23;11.00;;;5.00;99.90;;;;;;5016135;28;20233;-74
2021/12/04 01:21:20;;;;;;;30.97;11.17;;;5.00;99.90;;;;;;5019266;28;20293;-75
2021/12/04 01:23:47;;;;;;;25.30;9.30;;;5.00;99.90;;;;;;5020837;28;20289;-74
2021/12/04 01:26:14;;;;;;;27.43;11.03;;;5.10;99.90;;;;;;5019000;28;20230;-74
2021/12/04 01:28:41;;;;;;;31.57;11.50;;;5.10;99.90;;;;;;5020134;28;20238;-74
2021/12/04 01:31:08;;;;;;;24.30;9.77;;;5.10;99.90;;;;;;5019996;28;20222;-74
2021/12/04 01:33:35;;;;;;;31.80;11.50;;;5.10;99.90;;;;;;5018777;28;20709;-74
2021/12/04 01:36:04;;;;;;;29.60;11.13;;;5.10;99.90;;;;;;5020753;28;20234;-74
2021/12/04 01:38:31;;;;;;;27.03;10.23;;;5.10;99.90;;;;;;5019072;28;20233;-73
2021/12/04 01:40:58;;;;;;;21.07;7.13;;;5.10;99.90;;;;;;5017932;28;20578;-74
2021/12/04 01:43:25;;;;;;;29.73;10.57;;;5.10;99.90;;;;;;5018620;28;20214;-74
2021/12/04 01:45:54;;;;;;;28.77;10.63;;;5.10;99.90;;;;;;5018864;28;20563;-73
2021/12/04 01:48:21;;;;;;;24.70;9.67;;;5.20;99.90;;;;;;5018593;28;20841;-74
2021/12/04 01:50:48;;;;;;;27.23;11.07;;;5.20;99.90;;;;;;5019403;28;20214;-75
2021/12/04 01:53:17;;;;;;;25.10;9.80;;;5.20;99.90;;;;;;5019701;28;20210;-74
2021/12/04 01:55:44;;;;;;;27.37;10.57;;;5.20;99.90;;;;;;5017799;28;20318;-75
2021/12/04 01:58:13;;;;;;;31.60;9.93;;;5.20;99.90;;;;;;5019596;28;20266;-75
2021/12/04 02:00:41;;;;;;;29.67;10.23;;;5.20;99.90;;;;;;5018451;28;20225;-75
2021/12/04 02:03:12;;;;;;;24.27;9.50;;;5.20;99.90;;;;;;5019087;28;20311;-75
2021/12/04 02:05:40;;;;;;;26.70;10.17;;;5.20;99.90;;;;;;5019609;28;20238;-74
2021/12/04 02:08:08;;;;;;;24.30;9.40;;;5.20;99.90;;;;;;5035108;28;20236;-75
2021/12/04 02:10:37;;;;;;;25.07;9.47;;;5.30;99.90;;;;;;5041961;28;20258;-75
2021/12/04 02:13:04;;;;;;;23.50;8.50;;;6.10;99.90;;;;;;5041290;28;20213;-75
2021/12/04 02:15:31;;;;;;;24.63;8.57;;;5.20;99.90;;;;;;5039470;28;21004;-75
2021/12/04 02:17:59;;;;;;;23.83;9.27;;;5.20;99.90;;;;;;5029616;28;20229;-74
2021/12/04 02:20:29;;;;;;;22.13;8.57;;;5.20;99.90;;;;;;5019457;28;20217;-74
2021/12/04 02:22:57;;;;;;;30.90;10.23;;;5.20;99.90;;;;;;5020728;28;20224;-74
2021/12/04 02:25:24;;;;;;;25.53;9.90;;;5.20;99.90;;;;;;5018419;28;20660;-75
2021/12/04 02:27:52;;;;;;;18.90;6.87;;;5.20;99.90;;;;;;5018429;28;20313;-74
2021/12/04 02:30:22;;;;;;;24.87;9.23;;;5.30;99.90;;;;;;5016056;28;20368;-74
2021/12/04 02:32:49;;;;;;;27.77;9.87;;;5.30;99.90;;;;;;5014499;28;20566;-74
2021/12/04 02:35:18;;;;;;;23.07;7.63;;;5.30;99.90;;;;;;5014719;28;20241;-74
2021/12/04 02:37:47;;;;;;;23.10;8.73;;;5.30;99.90;;;;;;5018260;28;20237;-74
2021/12/04 02:40:19;;;;;;;23.97;9.00;;;5.30;99.90;;;;;;5016469;28;20214;-75
2021/12/04 02:42:46;;;;;;;21.30;7.27;;;5.30;99.90;;;;;;5015477;28;20214;-75
2021/12/04 02:45:14;;;;;;;22.97;8.23;;;5.30;99.90;;;;;;5014914;28;20243;-75
2021/12/04 02:47:41;;;;;;;26.43;9.40;;;5.30;99.90;;;;;;5015953;28;20233;-74
2021/12/04 02:50:11;;;;;;;26.83;8.63;;;5.40;99.90;;;;;;5007894;28;20681;-74
2021/12/04 02:52:39;;;;;;;26.77;9.60;;;5.40;99.90;;;;;;4994118;28;20680;-74
2021/12/04 02:55:08;;;;;;;27.97;9.87;;;5.30;99.90;;;;;;5015745;28;20616;-75
2021/12/04 02:57:40;;;;;;;27.60;9.30;;;5.40;99.90;;;;;;5014548;28;20239;-74
2021/12/04 03:00:08;;;;;;;27.47;9.90;;;5.40;99.90;;;;;;5014765;28;20215;-75
2021/12/04 03:02:35;;;;;;;28.63;10.13;;;5.40;99.90;;;;;;5014019;28;20272;-75
2021/12/04 03:05:06;;;;;;;25.37;8.63;;;5.40;99.90;;;;;;5013303;28;20506;-76
2021/12/04 03:07:33;;;;;;;24.47;9.43;;;5.40;99.90;;;;;;5013637;28;20241;-76
2021/12/04 03:10:00;;;;;;;25.87;9.20;;;5.40;99.90;;;;;;5014622;28;20249;-75
2021/12/04 03:12:29;;;;;;;23.30;8.93;;;5.40;99.90;;;;;;5015129;28;20226;-75
2021/12/04 03:14:56;;;;;;;24.70;8.80;;;5.40;99.90;;;;;;5014616;28;20221;-75
2021/12/04 03:17:25;;;;;;;23.20;8.07;;;5.40;99.90;;;;;;5014060;28;20316;-75
2021/12/04 03:19:53;;;;;;;22.53;8.93;;;5.40;99.90;;;;;;5014090;28;20221;-75
2021/12/04 03:22:22;;;;;;;20.03;7.90;;;5.40;99.90;;;;;;5014939;28;20328;-75
2021/12/04 03:24:49;;;;;;;21.00;7.37;;;5.40;99.90;;;;;;5015110;28;20296;-75
2021/12/04 03:27:18;;;;;;;28.17;9.67;;;5.30;99.90;;;;;;5013869;28;20672;-75
2021/12/04 03:29:49;;;;;;;31.20;10.07;;;5.30;99.90;;;;;;5014316;28;20257;-75
2021/12/04 03:32:37;;;;;;;26.17;9.37;;;5.30;99.90;;;;;;5014093;28;20353;-75
2021/12/04 03:35:22;;;;;;;20.50;7.33;;;5.30;99.90;;;;;;4995067;28;20231;-75
2021/12/04 03:40:39;;;;;;;27.00;9.83;;;5.30;99.90;;;;;;5015214;28;20202;-75
2021/12/04 03:43:09;;;;;;;22.50;6.67;;;5.30;99.90;;;;;;5014956;28;20214;-76
2021/12/04 03:45:41;;;;;;;20.07;8.37;;;5.30;99.90;;;;;;5019477;28;20272;-75
2021/12/04 03:48:12;;;;;;;21.73;7.53;;;5.30;99.90;;;;;;5020940;28;20237;-74
2021/12/04 03:50:39;;;;;;;24.70;9.73;;;5.30;99.90;;;;;;5014662;28;20213;-73
2021/12/04 03:53:06;;;;;;;25.30;8.93;;;5.30;99.90;;;;;;5013687;28;20675;-74
2021/12/04 03:55:34;;;;;;;23.40;8.33;;;5.40;99.90;;;;;;5013596;28;20592;-74
2021/12/04 03:58:01;;;;;;;23.60;9.17;;;5.40;99.90;;;;;;5014305;28;20313;-75
2021/12/04 04:00:29;;;;;;;24.23;7.70;;;5.40;99.90;;;;;;5013749;28;20222;-74
2021/12/04 04:02:58;;;;;;;25.30;9.60;;;5.40;99.90;;;;;;5016100;28;20218;-74
2021/12/04 04:05:25;;;;;;;27.87;9.47;;;5.40;99.90;;;;;;5016132;28;20206;-74
2021/12/04 04:07:52;;;;;;;22.60;8.37;;;5.20;99.90;;;;;;5015762;28;20236;-74
2021/12/04 04:10:20;;;;;;;24.83;8.57;;;5.40;99.90;;;;;;5012870;28;20215;-74
2021/12/04 04:12:47;;;;;;;25.47;8.67;;;5.40;99.90;;;;;;5011858;28;20246;-74
2021/12/04 04:15:14;;;;;;;22.43;8.10;;;5.40;99.90;;;;;;5012601;28;20690;-74
2021/12/04 04:17:43;;;;;;;23.70;8.73;;;5.40;99.90;;;;;;5013484;28;20280;-74
2021/12/04 04:20:14;;;;;;;24.80;9.50;;;5.40;99.90;;;;;;5012991;28;20218;-74
2021/12/04 04:22:41;;;;;;;28.53;10.27;;;5.40;99.90;;;;;;5013272;28;20218;-74
2021/12/04 04:25:10;;;;;;;27.77;9.33;;;5.40;99.90;;;;;;5013796;28;20641;-76
2021/12/04 04:27:37;;;;;;;22.70;8.70;;;5.40;99.90;;;;;;5013535;28;20301;-74
2021/12/04 04:30:06;;;;;;;22.47;7.73;;;5.50;99.90;;;;;;5013436;28;20221;-74
2021/12/04 04:32:33;;;;;;;29.80;10.00;;;5.40;99.90;;;;;;5013261;28;20230;-74
2021/12/04 04:35:08;;;;;;;25.37;9.10;;;4.50;99.90;;;;;;5013385;28;20232;-74
2021/12/04 04:37:43;;;;;;;32.67;10.97;;;5.40;99.90;;;;;;5013184;28;20845;-74
2021/12/04 04:57:24;;;;;;;24.50;8.80;;;5.50;99.90;;;;;;5014178;28;20844;-74
2021/12/04 04:57:37;;;;;;;27.87;9.07;;;5.50;99.90;;;;;;5010990;28;20608;-74
2021/12/04 05:00:17;;;;;;;28.20;8.63;;;5.50;99.90;;;;;;5011897;28;20216;-74
2021/12/04 05:11:11;;;;;;;19.93;6.37;;;5.50;99.90;;;;;;5011900;28;20302;-74
2021/12/04 05:13:39;;;;;;;23.73;7.50;;;5.50;99.90;;;;;;5012088;28;20218;-74
2021/12/04 05:16:12;;;;;;;23.03;8.00;;;5.50;99.90;;;;;;5011861;28;20272;-74
2021/12/04 05:18:43;;;;;;;21.03;7.43;;;5.50;99.90;;;;;;5012240;28;20292;-74
2021/12/04 05:21:13;;;;;;;20.90;7.57;;;5.50;99.90;;;;;;5012803;28;20226;-74
2021/12/04 05:23:43;;;;;;;26.10;7.83;;;5.50;99.90;;;;;;5012062;28;20607;-75
2021/12/04 05:26:15;;;;;;;26.50;7.97;;;5.50;99.90;;;;;;5012197;28;20333;-73
2021/12/04 05:28:42;;;;;;;20.53;7.27;;;5.50;99.90;;;;;;5012214;28;20244;-74
2021/12/04 05:31:09;;;;;;;25.77;8.53;;;5.40;99.90;;;;;;5012437;28;20220;-74
2021/12/04 05:33:37;;;;;;;23.77;7.53;;;5.40;99.90;;;;;;4996466;28;20229;-74
2021/12/04 05:36:04;;;;;;;25.03;7.67;;;5.50;99.90;;;;;;5012551;28;20222;-73
2021/12/04 05:38:31;;;;;;;24.60;7.23;;;5.50;99.90;;;;;;5013391;28;20244;-73
2021/12/04 05:40:58;;;;;;;17.17;6.47;;;5.50;99.90;;;;;;5012205;28;20211;-73
2021/12/04 05:43:28;;;;;;;15.43;6.23;;;5.50;99.90;;;;;;5011326;28;20712;-73
2021/12/04 05:46:01;;;;;;;18.57;5.87;;;5.50;99.90;;;;;;5011405;28;20294;-74
2021/12/04 05:48:34;;;;;;;15.00;4.70;;;5.50;99.90;;;;;;5010109;28;20291;-73
2021/12/04 05:54:00;;;;;;;28.70;7.20;;;5.50;99.90;;;;;;5048074;28;20729;-73
2021/12/04 05:56:29;;;;;;;19.20;5.27;;;5.50;99.90;;;;;;5062517;28;20592;-73
2021/12/04 05:58:56;;;;;;;24.13;6.70;;;5.50;99.90;;;;;;5049497;28;20232;-73
2021/12/04 06:01:24;;;;;;;21.73;6.97;;;5.50;99.90;;;;;;5049791;28;20229;-73
2021/12/04 06:03:52;;;;;;;23.10;6.90;;;5.60;99.90;;;;;;5048032;28;20319;-73
2021/12/04 06:06:19;;;;;;;21.17;6.60;;;5.60;99.90;;;;;;5047680;28;21193;-73
2021/12/04 06:08:46;;;;;;;19.00;5.53;;;5.60;99.90;;;;;;5050093;28;20273;-74
2021/12/04 06:11:15;;;;;;;19.40;6.03;;;5.60;99.90;;;;;;5050974;28;20256;-73
2021/12/04 06:13:42;;;;;;;19.37;6.10;;;5.70;99.90;;;;;;5050328;28;20308;-74
2021/12/04 06:16:10;;;;;;;21.33;5.77;;;5.70;99.90;;;;;;5050106;28;20201;-74
2021/12/04 06:18:37;;;;;;;21.33;6.23;;;5.60;99.90;;;;;;5049284;28;20270;-74
2021/12/04 06:23:49;;;;;;;21.20;6.40;;;5.70;99.90;;;;;;5049811;28;20204;-74
2021/12/04 06:26:17;;;;;;;20.07;5.77;;;5.70;99.90;;;;;;5049424;28;20583;-74
2021/12/04 06:28:44;;;;;;;18.67;5.73;;;5.70;99.90;;;;;;5048329;28;20244;-74
2021/12/04 06:31:12;;;;;;;21.93;5.80;;;5.70;99.90;;;;;;5049583;28;20652;-74
2021/12/04 06:33:40;;;;;;;20.87;6.23;;;5.70;99.90;;;;;;5047873;28;20243;-74
2021/12/04 06:36:08;;;;;;;22.03;6.17;;;5.70;99.90;;;;;;5050107;28;20212;-74
2021/12/04 06:38:35;;;;;;;19.83;5.90;;;5.70;99.90;;;;;;5049824;28;20229;-74
2021/12/04 06:41:03;;;;;;;19.33;5.67;;;5.70;99.90;;;;;;5066523;28;20276;-75
2021/12/04 06:43:32;;;;;;;19.20;5.67;;;5.70;99.90;;;;;;5049062;28;20224;-74
2021/12/04 06:46:01;;;;;;;19.47;5.60;;;5.70;99.90;;;;;;5049493;28;20276;-74
2021/12/04 06:48:38;;;;;;;20.80;5.97;;;5.70;99.90;;;;;;5050130;28;20277;-74
2021/12/04 06:51:10;;;;;;;18.77;5.50;;;5.70;99.90;;;;;;5050276;28;20209;-75
2021/12/04 06:53:42;;;;;;;23.67;6.20;;;5.70;99.90;;;;;;5050297;28;20236;-74
2021/12/04 06:56:11;;;;;;;22.53;6.20;;;5.70;99.90;;;;;;5049574;28;20251;-74
2021/12/04 06:58:40;;;;;;;22.40;6.10;;;5.70;99.90;;;;;;5051870;28;20242;-74
2021/12/04 07:01:11;;;;;;;20.37;5.87;;;5.70;99.90;;;;;;5049910;28;20300;-73
2021/12/04 07:03:38;;;;;;;19.50;5.83;;;5.70;99.90;;;;;;5046223;28;20809;-74
2021/12/04 07:06:05;;;;;;;19.47;5.73;;;5.70;99.90;;;;;;5036711;28;20221;-73
2021/12/04 07:08:32;;;;;;;23.80;6.50;;;5.70;99.90;;;;;;5034554;28;20292;-73
2021/12/04 07:11:00;;;;;;;22.07;6.27;;;5.70;99.90;;;;;;5036615;28;20276;-73
2021/12/04 07:13:27;;;;;;;19.20;5.63;;;5.70;99.90;;;;;;5033666;28;20313;-74
2021/12/04 07:16:01;;;;;;;18.47;5.43;;;5.70;99.90;;;;;;5034438;28;20219;-73
2021/12/04 07:18:28;;;;;;;22.37;6.30;;;5.70;99.90;;;;;;5033776;28;20239;-74
2021/12/04 07:20:55;;;;;;;21.53;6.33;;;5.70;99.90;;;;;;5035048;28;20229;-73
2021/12/04 07:23:22;;;;;;;13.87;4.53;;;5.70;99.90;;;;;;5033681;28;20245;-73
2021/12/04 07:25:49;;;;;;;22.13;6.53;;;5.80;99.90;;;;;;5035659;28;20232;-73
2021/12/04 07:28:16;;;;;;;19.03;5.50;;;5.80;99.90;;;;;;5035626;28;20234;-73
2021/12/04 07:30:43;;;;;;;18.43;5.53;;;5.80;99.90;;;;;;5035561;28;20227;-73
2021/12/04 07:33:12;;;;;;;21.53;5.97;;;5.80;99.90;;;;;;5033781;28;20221;-74
2021/12/04 07:35:38;;;;;;;24.03;6.70;;;5.80;99.90;;;;;;5035742;28;20213;-74
2021/12/04 07:38:05;;;;;;;19.23;5.73;;;5.80;99.90;;;;;;5032503;28;20252;-73
2021/12/04 07:40:33;;;;;;;24.87;6.40;;;5.80;99.90;;;;;;5036928;28;20711;-73
2021/12/04 07:43:00;;;;;;;22.90;6.87;;;5.80;99.90;;;;;;5037014;28;20600;-74
2021/12/04 07:45:27;;;;;;;21.70;6.23;;;5.80;99.90;;;;;;5035167;28;20688;-75
2021/12/04 07:47:54;;;;;;;20.87;5.60;;;5.90;99.90;;;;;;5037131;28;20269;-74
2021/12/04 07:50:23;;;;;;;21.93;6.33;;;5.90;99.90;;;;;;5038087;28;20231;-74
2021/12/04 07:52:50;;;;;;;22.23;6.50;;;5.90;99.90;;;;;;5035708;28;20233;-76
2021/12/04 07:55:17;;;;;;;20.97;6.13;;;5.90;99.90;;;;;;5032926;28;20218;-74
2021/12/04 07:57:45;;;;;;;20.70;6.17;;;5.90;99.90;;;;;;5036246;28;20262;-75
2021/12/04 08:00:16;;;;;;;21.07;6.57;;;5.90;99.90;;;;;;5032327;28;20220;-75
2021/12/04 08:02:43;;;;;;;25.53;7.00;;;5.90;99.90;;;;;;5036564;28;20213;-71
2021/12/04 08:05:11;;;;;;;23.30;6.87;;;6.00;99.90;;;;;;5033886;28;20216;-75
2021/12/04 08:07:39;;;;;;;22.03;6.70;;;6.00;99.90;;;;;;5032651;28;20233;-73
2021/12/04 08:10:08;;;;;;;21.83;5.97;;;6.00;99.90;;;;;;5034090;28;20211;-74
2021/12/04 08:12:36;;;;;;;18.63;5.20;;;6.00;99.90;;;;;;5047761;28;20425;-74
2021/12/04 08:15:03;;;;;;;21.47;6.80;;;6.10;99.90;;;;;;5029769;28;20225;-74
2021/12/04 08:17:30;;;;;;;22.57;6.77;;;6.00;99.90;;;;;;5039328;28;20478;-74
2021/12/04 08:19:56;;;;;;;22.13;6.63;;;6.10;99.90;;;;;;5036472;28;20217;-74
2021/12/04 08:22:25;;;;;;;20.70;6.47;;;6.10;99.90;;;;;;5032811;28;20228;-74
2021/12/04 08:24:53;;;;;;;23.83;7.37;;;6.10;99.90;;;;;;5032859;28;20267;-75
2021/12/04 08:27:20;;;;;;;24.13;7.23;;;6.20;99.90;;;;;;5030889;28;20210;-74
2021/12/04 08:29:47;;;;;;;26.93;7.73;;;6.20;99.90;;;;;;5031482;28;20548;-74
2021/12/04 08:32:14;;;;;;;28.03;7.60;;;6.30;99.90;;;;;;5033219;28;20213;-75
2021/12/04 08:34:41;;;;;;;22.93;6.63;;;6.40;99.90;;;;;;5044181;28;20208;-74
2021/12/04 08:37:08;;;;;;;22.40;7.03;;;6.30;99.90;;;;;;5043106;28;20217;-74
2021/12/04 08:39:35;;;;;;;23.47;7.17;;;6.40;99.90;;;;;;5047814;28;20229;-74
2021/12/04 08:42:04;;;;;;;24.20;6.57;;;6.40;99.90;;;;;;5046514;28;20297;-74
2021/12/04 08:44:32;;;;;;;20.63;6.43;;;6.50;99.90;;;;;;5045541;28;20205;-74
2021/12/04 08:46:59;;;;;;;19.93;6.43;;;6.50;99.90;;;;;;5047514;28;20292;-75
2021/12/04 08:49:29;;;;;;;22.90;7.10;;;6.50;99.90;;;;;;5042959;28;20232;-74
2021/12/04 08:51:56;;;;;;;20.00;5.97;;;6.60;99.90;;;;;;5045077;28;20943;-75
2021/12/04 08:54:23;;;;;;;20.10;6.77;;;6.60;99.90;;;;;;5040242;28;20315;-73
2021/12/04 08:56:50;;;;;;;22.30;7.23;;;6.60;99.90;;;;;;5042388;28;20976;-75
2021/12/04 08:59:18;;;;;;;19.30;6.27;;;6.60;99.90;;;;;;5043158;28;20619;-76
2021/12/04 09:01:46;;;;;;;23.27;6.83;;;6.60;99.90;;;;;;5044041;28;20206;-76
2021/12/04 09:04:17;;;;;;;19.90;6.63;;;6.60;99.90;;;;;;5042237;28;20201;-75
2021/12/04 09:06:44;;;;;;;21.80;6.80;;;6.60;99.90;;;;;;5038508;28;20209;-76
2021/12/04 09:09:12;;;;;;;18.87;6.30;;;6.60;99.90;;;;;;5039851;28;20233;-76
2021/12/04 09:11:44;;;;;;;24.03;7.50;;;6.60;99.90;;;;;;5039316;28;20466;-75
2021/12/04 09:14:13;;;;;;;20.00;6.57;;;6.50;99.90;;;;;;5038311;28;20225;-74
2021/12/04 09:16:41;;;;;;;21.77;7.10;;;6.60;99.90;;;;;;5038810;28;20216;-74
2021/12/04 09:19:08;;;;;;;19.93;6.20;;;6.60;99.90;;;;;;5038149;28;20259;-74
2021/12/04 09:21:37;;;;;;;21.97;6.80;;;6.70;99.90;;;;;;5038556;28;20592;-74
2021/12/04 09:24:10;;;;;;;17.80;6.37;;;6.70;99.90;;;;;;5039788;28;20320;-74
2021/12/04 09:26:46;;;;;;;23.13;7.10;;;6.80;99.90;;;;;;5035963;28;20315;-75
2021/12/04 09:29:30;;;;;;;18.23;5.63;;;6.80;99.90;;;;;;5035427;28;20279;-75
2021/12/04 09:32:15;;;;;;;24.63;7.80;;;6.90;99.90;;;;;;5037407;28;20223;-74
2021/12/04 10:02:25;;;;;;;22.57;6.77;;;7.70;99.90;;;;;;5035901;28;20283;-73
2021/12/04 10:16:19;;;;;;;24.30;7.20;;;8.10;99.90;;;;;;5040868;28;20234;-72
2021/12/04 10:18:57;;;;;;;21.00;6.17;;;8.00;99.90;;;;;;5034933;28;20292;-72
2021/12/04 10:21:50;;;;;;;20.33;5.77;;;7.90;99.90;;;;;;5042937;28;20203;-72
2021/12/04 10:33:08;;;;;;;22.40;6.70;;;7.70;99.90;;;;;;5029799;28;20527;-72
2021/12/04 10:35:36;;;;;;;25.03;6.97;;;7.60;99.90;;;;;;5041246;28;20230;-73
2021/12/04 10:38:06;;;;;;;22.40;6.63;;;7.60;99.90;;;;;;5043854;28;20231;-74
2021/12/04 10:40:37;;;;;;;25.70;7.20;;;7.60;99.90;;;;;;5041638;28;20213;-71
2021/12/04 10:43:06;;;;;;;20.83;6.17;;;7.60;99.90;;;;;;5044088;28;20283;-72
2021/12/04 10:45:35;;;;;;;18.03;5.47;;;7.60;99.90;;;;;;5043402;28;20213;-72
2021/12/04 10:48:07;;;;;;;22.13;6.57;;;7.70;99.90;;;;;;5043268;28;20224;-71
2021/12/04 10:50:45;;;;;;;24.43;6.43;;;7.60;99.90;;;;;;5041873;28;20223;-72
2021/12/04 10:53:18;;;;;;;20.83;6.50;;;7.70;99.90;;;;;;5045855;28;20245;-72
2021/12/04 10:55:50;;;;;;;20.63;6.53;;;7.70;99.90;;;;;;5046729;28;20209;-72
2021/12/04 10:58:37;;;;;;;19.87;5.83;;;7.80;99.90;;;;;;5048161;28;20229;-72
2021/12/04 11:01:15;;;;;;;20.47;5.67;;;8.00;99.90;;;;;;5044651;28;20672;-73
2021/12/04 11:03:48;;;;;;;20.23;6.23;;;8.00;99.90;;;;;;5044442;28;20211;-72
2021/12/04 11:21:03;;;;;;;17.23;5.27;;;8.20;99.90;;;;;;5050497;28;20206;-72
2021/12/04 11:35:12;;;;;;;17.23;5.43;;;8.20;99.90;;;;;;5043442;28;20333;-72
2021/12/04 11:40:32;;;;;;;18.10;5.30;;;8.30;99.90;;;;;;5047991;28;20226;-71
2021/12/04 11:43:04;;;;;;;15.50;5.30;;;8.30;99.90;;;;;;5041870;28;20207;-71
2021/12/04 11:45:44;;;;;;;20.43;5.97;;;8.20;99.90;;;;;;5045302;28;20242;-70
2021/12/04 11:48:11;;;;;;;22.87;6.00;;;8.20;99.90;;;;;;5044046;28;20244;-72
2021/12/04 11:50:41;;;;;;;16.97;5.27;;;8.20;99.90;;;;;;5046153;28;20217;-71
2021/12/04 11:53:12;;;;;;;19.83;5.77;;;8.30;99.90;;;;;;5043207;28;20230;-71
2021/12/04 11:55:41;;;;;;;20.57;5.93;;;8.30;99.90;;;;;;5044760;28;20217;-72
2021/12/04 11:58:20;;;;;;;19.97;5.87;;;8.20;99.90;;;;;;5045002;28;20572;-72
2021/12/04 12:00:48;;;;;;;21.37;5.83;;;8.20;99.90;;;;;;5035033;28;20309;-71
2021/12/04 12:03:18;;;;;;;19.73;5.43;;;8.20;99.90;;;;;;5044711;28;20207;-71
2021/12/04 12:05:47;;;;;;;21.27;5.60;;;8.20;99.90;;;;;;5038039;28;20214;-71
2021/12/04 12:08:26;;;;;;;22.03;6.20;;;8.10;99.90;;;;;;5042687;28;20231;-71
2021/12/04 12:10:58;;;;;;;18.33;4.90;;;8.10;99.90;;;;;;5038006;28;20658;-71
2021/12/04 12:13:31;;;;;;;25.17;6.60;;;8.20;99.90;;;;;;5044764;28;20213;-72
2021/12/04 12:16:06;;;;;;;18.17;5.37;;;8.10;99.90;;;;;;5037827;28;20325;-71
2021/12/04 12:18:44;;;;;;;25.33;6.93;;;8.20;99.90;;;;;;5038584;28;20324;-70
2021/12/04 12:21:14;;;;;;;23.20;6.33;;;8.20;99.90;;;;;;5041793;28;20214;-71
2021/12/04 12:26:39;;;;;;;22.40;6.47;;;8.20;99.90;;;;;;5025885;28;20764;-71
2021/12/04 12:38:08;;;;;;;21.53;5.97;;;8.30;99.90;;;;;;5021654;28;20360;-72
2021/12/04 12:40:35;;;;;;;21.07;5.63;;;7.90;99.90;;;;;;5034685;28;20230;-71
2021/12/04 12:43:18;;;;;;;15.93;4.73;;;8.40;99.90;;;;;;5030868;28;20219;-71
2021/12/04 12:45:58;;;;;;;22.77;5.93;;;8.40;99.90;;;;;;5032968;28;20233;-71
2021/12/04 12:48:26;;;;;;;16.03;5.13;;;8.40;99.90;;;;;;5032923;28;20821;-71
2021/12/04 12:50:54;;;;;;;18.27;5.27;;;8.50;99.90;;;;;;5031568;28;20219;-71
2021/12/04 12:53:25;;;;;;;20.80;5.70;;;8.50;99.90;;;;;;5033053;28;20280;-71
2021/12/04 12:56:04;;;;;;;14.10;4.53;;;8.50;99.90;;;;;;5032524;28;20618;-71
2021/12/04 12:58:39;;;;;;;17.33;5.27;;;8.50;99.90;;;;;;5036641;28;20238;-71
2021/12/04 13:12:23;;;;;;;14.77;4.63;;;8.10;99.90;;;;;;5031298;28;20221;-72
2021/12/04 13:14:51;;;;;;;20.20;5.73;;;8.00;99.90;;;;;;5030205;28;20225;-72
2021/12/04 13:17:23;;;;;;;17.40;5.33;;;7.90;99.90;;;;;;5029473;28;20225;-72
2021/12/04 13:19:54;;;;;;;19.17;5.37;;;7.90;99.90;;;;;;5029498;28;20485;-72
2021/12/04 13:22:23;;;;;;;19.97;5.77;;;7.80;99.90;;;;;;5026602;28;21623;-71
2021/12/04 13:24:52;;;;;;;16.77;5.27;;;7.80;99.90;;;;;;5029395;28;20315;-71
2021/12/04 13:29:52;;;;;;;19.00;5.33;;;7.60;99.90;;;;;;5029634;28;20212;-71
2021/12/04 13:32:32;;;;;;;20.37;5.83;;;7.70;99.90;;;;;;5027458;28;20224;-70
2021/12/04 13:35:07;;;;;;;17.97;5.80;;;7.60;99.90;;;;;;5027679;28;20224;-70
2021/12/04 13:37:35;;;;;;;20.33;6.60;;;7.60;99.90;;;;;;5028249;28;20229;-70
2021/12/04 13:40:05;;;;;;;18.87;6.33;;;7.50;99.90;;;;;;5025411;28;20738;-70
2021/12/04 13:42:33;;;;;;;21.13;7.23;;;7.50;99.90;;;;;;5027170;28;20222;-70
2021/12/04 13:45:01;;;;;;;26.57;7.83;;;7.50;99.90;;;;;;5028051;28;20645;-70
2021/12/04 13:47:29;;;;;;;26.63;7.83;;;7.50;99.90;;;;;;5031045;28;20216;-70
2021/12/04 13:49:57;;;;;;;24.10;7.53;;;7.50;99.90;;;;;;5031855;28;20225;-70
2021/12/04 13:52:25;;;;;;;17.83;6.30;;;7.50;99.90;;;;;;5029545;28;20336;-70
2021/12/04 13:55:00;;;;;;;23.27;6.80;;;7.50;99.90;;;;;;5031460;28;20282;-70
2021/12/04 13:57:27;;;;;;;24.60;8.00;;;7.50;99.90;;;;;;5031213;28;20573;-70
2021/12/04 13:59:58;;;;;;;22.13;7.33;;;7.50;99.90;;;;;;5027124;28;20390;-70
2021/12/04 14:02:27;;;;;;;24.57;8.00;;;7.50;99.90;;;;;;5027077;28;20295;-70
2021/12/04 14:05:01;;;;;;;21.97;6.87;;;7.40;99.90;;;;;;5027459;28;20213;-71
2021/12/04 14:07:29;;;;;;;26.50;8.07;;;7.30;99.90;;;;;;5028598;28;20868;-71
2021/12/04 14:09:56;;;;;;;18.87;6.63;;;7.30;99.90;;;;;;5030671;28;20211;-71
2021/12/04 14:12:25;;;;;;;20.70;7.07;;;7.30;99.90;;;;;;5030495;28;20694;-71
2021/12/04 14:14:52;;;;;;;19.37;7.27;;;7.30;99.90;;;;;;5032377;28;20233;-71
2021/12/04 14:17:19;;;;;;;24.13;7.30;;;7.30;99.90;;;;;;5033453;28;20301;-71
2021/12/04 14:19:47;;;;;;;24.33;7.70;;;7.20;99.90;;;;;;5034974;28;20574;-70
2021/12/04 14:22:17;;;;;;;21.03;7.87;;;7.20;99.90;;;;;;5034220;28;20689;-71
2021/12/04 14:24:48;;;;;;;25.27;8.27;;;7.20;99.90;;;;;;5036778;28;20212;-71
2021/12/04 14:27:21;;;;;;;26.40;8.17;;;7.20;99.90;;;;;;5039480;28;20691;-71
2021/12/04 14:29:51;;;;;;;19.43;7.00;;;7.10;99.90;;;;;;5039740;28;20217;-70
2021/12/04 14:32:28;;;;;;;27.57;9.33;;;7.10;99.90;;;;;;5038519;28;20210;-70
2021/12/04 14:34:56;;;;;;;22.50;7.50;;;7.10;99.90;;;;;;5036266;28;20248;-70
2021/12/04 14:37:25;;;;;;;21.27;8.23;;;7.00;99.90;;;;;;5032996;28;20209;-70
2021/12/04 14:39:52;;;;;;;25.33;8.40;;;7.00;99.90;;;;;;5031052;28;20228;-71
2021/12/04 14:42:22;;;;;;;21.83;8.17;;;7.00;99.90;;;;;;5032083;28;20667;-72
2021/12/04 14:44:52;;;;;;;23.40;9.07;;;6.90;99.90;;;;;;5026929;28;20222;-71
2021/12/04 14:47:21;;;;;;;28.47;10.87;;;6.90;99.90;;;;;;5027606;28;20212;-70
2021/12/04 14:49:51;;;;;;;22.27;9.27;;;6.90;99.90;;;;;;5026636;28;21770;-70
2021/12/04 14:52:20;;;;;;;28.93;10.10;;;6.90;99.90;;;;;;5024208;28;20222;-69
2021/12/04 14:54:49;;;;;;;27.13;9.70;;;6.80;99.90;;;;;;5025101;28;20457;-69
2021/12/04 14:57:18;;;;;;;28.77;10.50;;;6.80;99.90;;;;;;5024583;28;20236;-71
2021/12/04 14:59:45;;;;;;;26.03;9.73;;;6.80;99.90;;;;;;5027685;28;20217;-70
2021/12/04 15:02:14;;;;;;;28.00;10.43;;;6.80;99.90;;;;;;5043136;28;20221;-71
2021/12/04 15:04:42;;;;;;;29.23;11.00;;;6.70;99.90;;;;;;5025435;28;20558;-70
2021/12/04 15:07:18;;;;;;;24.80;9.10;;;6.70;99.90;;;;;;5031443;28;20291;-69
2021/12/04 15:09:45;;;;;;;24.67;9.30;;;6.70;99.90;;;;;;5030750;28;20377;-69
2021/12/04 15:12:24;;;;;;;23.10;9.13;;;6.60;99.90;;;;;;5031451;28;20264;-69
2021/12/04 15:14:57;;;;;;;25.37;8.77;;;6.60;99.90;;;;;;5031981;28;20335;-69
2021/12/04 15:17:24;;;;;;;24.10;9.43;;;6.50;99.90;;;;;;5031802;28;20299;-70
2021/12/04 15:19:53;;;;;;;22.10;8.67;;;6.50;99.90;;;;;;5030901;28;20210;-72
2021/12/04 15:22:31;;;;;;;24.47;10.23;;;6.40;99.90;;;;;;5036179;28;20237;-72